sensor_id;sensor_type;location;lat;lon;timestamp;P1;durP1;ratioP1;P2;durP2;ratioP2
34876;SDS011;21086;44.780;17.194;2023-04-24T00:02:01;13.13;;;7.65;;
34876;SDS011;21086;44.780;17.194;2023-04-24T00:04:30;11.57;;;7.55;;
34876;SDS011;21086;44.780;17.194;2023-04-24T00:06:58;12.38;;;7.70;;
34876;SDS011;21086;44.780;17.194;2023-04-24T00:09:26;9.20;;;6.32;;
34876;SDS011;21086;44.780;17.194;2023-04-24T00:11:53;8.52;;;6.00;;
34876;SDS011;21086;44.780;17.194;2023-04-24T00:14:20;11.20;;;6.45;;
34876;SDS011;21086;44.780;17.194;2023-04-24T00:16:48;12.15;;;6.00;;
34876;SDS011;21086;44.780;17.194;2023-04-24T00:19:15;8.63;;;5.53;;
34876;SDS011;21086;44.780;17.194;2023-04-24T00:21:43;8.55;;;5.55;;
34876;SDS011;21086;44.780;17.194;2023-04-24T00:24:10;6.63;;;5.07;;
34876;SDS011;21086;44.780;17.194;2023-04-24T00:26:37;7.35;;;4.53;;
34876;SDS011;21086;44.780;17.194;2023-04-24T00:29:04;6.18;;;4.38;;
34876;SDS011;21086;44.780;17.194;2023-04-24T00:31:31;5.95;;;3.72;;
34876;SDS011;21086;44.780;17.194;2023-04-24T00:34:01;6.95;;;3.88;;
34876;SDS011;21086;44.780;17.194;2023-04-24T00:36:28;5.30;;;3.92;;
34876;SDS011;21086;44.780;17.194;2023-04-24T00:38:56;5.60;;;3.58;;
34876;SDS011;21086;44.780;17.194;2023-04-24T00:41:24;4.30;;;3.10;;
34876;SDS011;21086;44.780;17.194;2023-04-24T00:43:52;5.18;;;3.47;;
34876;SDS011;21086;44.780;17.194;2023-04-24T00:46:19;3.58;;;2.58;;
34876;SDS011;21086;44.780;17.194;2023-04-24T00:48:47;3.58;;;3.10;;
34876;SDS011;21086;44.780;17.194;2023-04-24T00:51:14;4.35;;;2.78;;
34876;SDS011;21086;44.780;17.194;2023-04-24T00:53:42;6.22;;;2.42;;
34876;SDS011;21086;44.780;17.194;2023-04-24T00:56:09;3.17;;;1.92;;
34876;SDS011;21086;44.780;17.194;2023-04-24T00:58:36;1.85;;;1.40;;
34876;SDS011;21086;44.780;17.194;2023-04-24T01:01:04;2.17;;;1.67;;
34876;SDS011;21086;44.780;17.194;2023-04-24T01:03:33;2.78;;;1.90;;
34876;SDS011;21086;44.780;17.194;2023-04-24T01:06:04;2.45;;;1.95;;
34876;SDS011;21086;44.780;17.194;2023-04-24T01:08:31;4.05;;;1.88;;
34876;SDS011;21086;44.780;17.194;2023-04-24T01:11:01;3.00;;;1.88;;
34876;SDS011;21086;44.780;17.194;2023-04-24T01:13:31;2.45;;;1.88;;
34876;SDS011;21086;44.780;17.194;2023-04-24T01:15:59;8.02;;;2.85;;
34876;SDS011;21086;44.780;17.194;2023-04-24T01:18:27;3.03;;;2.00;;
34876;SDS011;21086;44.780;17.194;2023-04-24T01:20:58;6.97;;;2.28;;
34876;SDS011;21086;44.780;17.194;2023-04-24T01:23:26;3.03;;;1.90;;
34876;SDS011;21086;44.780;17.194;2023-04-24T01:25:53;3.38;;;2.10;;
34876;SDS011;21086;44.780;17.194;2023-04-24T01:28:23;4.38;;;2.58;;
34876;SDS011;21086;44.780;17.194;2023-04-24T01:30:50;6.68;;;3.58;;
34876;SDS011;21086;44.780;17.194;2023-04-24T01:33:20;6.53;;;3.47;;
34876;SDS011;21086;44.780;17.194;2023-04-24T01:35:48;5.30;;;3.88;;
34876;SDS011;21086;44.780;17.194;2023-04-24T01:38:16;5.53;;;3.53;;
34876;SDS011;21086;44.780;17.194;2023-04-24T01:40:43;7.57;;;4.00;;
34876;SDS011;21086;44.780;17.194;2023-04-24T01:43:11;6.80;;;3.63;;
34876;SDS011;21086;44.780;17.194;2023-04-24T01:45:39;7.28;;;3.70;;
34876;SDS011;21086;44.780;17.194;2023-04-24T01:48:06;8.68;;;3.92;;
34876;SDS011;21086;44.780;17.194;2023-04-24T01:50:33;6.53;;;3.65;;
34876;SDS011;21086;44.780;17.194;2023-04-24T01:53:00;4.50;;;3.40;;
34876;SDS011;21086;44.780;17.194;2023-04-24T01:55:27;5.25;;;3.30;;
34876;SDS011;21086;44.780;17.194;2023-04-24T01:57:55;5.20;;;2.97;;
34876;SDS011;21086;44.780;17.194;2023-04-24T02:00:22;4.72;;;3.30;;
34876;SDS011;21086;44.780;17.194;2023-04-24T02:02:51;5.15;;;2.72;;
34876;SDS011;21086;44.780;17.194;2023-04-24T02:05:18;4.95;;;2.90;;
34876;SDS011;21086;44.780;17.194;2023-04-24T02:07:45;7.85;;;3.00;;
34876;SDS011;21086;44.780;17.194;2023-04-24T02:10:12;5.13;;;3.47;;
34876;SDS011;21086;44.780;17.194;2023-04-24T02:12:39;3.47;;;2.85;;
34876;SDS011;21086;44.780;17.194;2023-04-24T02:15:06;5.53;;;3.13;;
34876;SDS011;21086;44.780;17.194;2023-04-24T02:17:34;4.63;;;3.03;;
34876;SDS011;21086;44.780;17.194;2023-04-24T02:20:01;4.90;;;3.22;;
34876;SDS011;21086;44.780;17.194;2023-04-24T02:22:28;3.08;;;2.72;;
34876;SDS011;21086;44.780;17.194;2023-04-24T02:24:55;7.38;;;2.53;;
34876;SDS011;21086;44.780;17.194;2023-04-24T02:27:22;6.55;;;3.10;;
34876;SDS011;21086;44.780;17.194;2023-04-24T02:29:50;4.00;;;2.80;;
34876;SDS011;21086;44.780;17.194;2023-04-24T02:32:17;4.03;;;2.60;;
34876;SDS011;21086;44.780;17.194;2023-04-24T02:34:44;4.25;;;2.50;;
34876;SDS011;21086;44.780;17.194;2023-04-24T02:37:12;3.72;;;2.50;;
34876;SDS011;21086;44.780;17.194;2023-04-24T02:39:39;2.63;;;2.22;;
34876;SDS011;21086;44.780;17.194;2023-04-24T02:42:06;5.63;;;2.22;;
34876;SDS011;21086;44.780;17.194;2023-04-24T02:44:34;4.18;;;2.60;;
34876;SDS011;21086;44.780;17.194;2023-04-24T02:47:01;3.33;;;2.60;;
34876;SDS011;21086;44.780;17.194;2023-04-24T02:49:28;2.53;;;1.60;;
34876;SDS011;21086;44.780;17.194;2023-04-24T02:51:55;3.67;;;2.03;;
34876;SDS011;21086;44.780;17.194;2023-04-24T02:54:22;3.08;;;1.60;;
34876;SDS011;21086;44.780;17.194;2023-04-24T02:56:49;2.78;;;1.52;;
34876;SDS011;21086;44.780;17.194;2023-04-24T02:59:16;1.20;;;1.10;;
34876;SDS011;21086;44.780;17.194;2023-04-24T03:01:43;4.95;;;1.70;;
34876;SDS011;21086;44.780;17.194;2023-04-24T03:04:10;2.03;;;1.40;;
34876;SDS011;21086;44.780;17.194;2023-04-24T03:06:38;5.43;;;1.13;;
34876;SDS011;21086;44.780;17.194;2023-04-24T03:09:05;2.08;;;1.23;;
34876;SDS011;21086;44.780;17.194;2023-04-24T03:11:32;1.80;;;1.02;;
34876;SDS011;21086;44.780;17.194;2023-04-24T03:13:59;2.75;;;1.27;;
34876;SDS011;21086;44.780;17.194;2023-04-24T03:16:26;1.77;;;1.00;;
34876;SDS011;21086;44.780;17.194;2023-04-24T03:18:53;1.83;;;1.25;;
34876;SDS011;21086;44.780;17.194;2023-04-24T03:21:20;3.35;;;1.08;;
34876;SDS011;21086;44.780;17.194;2023-04-24T03:23:47;2.15;;;1.08;;
34876;SDS011;21086;44.780;17.194;2023-04-24T03:26:14;1.08;;;0.98;;
34876;SDS011;21086;44.780;17.194;2023-04-24T03:28:41;2.92;;;1.10;;
34876;SDS011;21086;44.780;17.194;2023-04-24T03:31:08;1.73;;;1.20;;
34876;SDS011;21086;44.780;17.194;2023-04-24T03:33:35;1.98;;;1.15;;
34876;SDS011;21086;44.780;17.194;2023-04-24T03:36:02;1.95;;;1.02;;
34876;SDS011;21086;44.780;17.194;2023-04-24T03:38:31;1.00;;;0.90;;
34876;SDS011;21086;44.780;17.194;2023-04-24T03:40:58;1.77;;;1.13;;
34876;SDS011;21086;44.780;17.194;2023-04-24T03:43:26;1.58;;;1.10;;
34876;SDS011;21086;44.780;17.194;2023-04-24T03:45:53;1.52;;;1.00;;
34876;SDS011;21086;44.780;17.194;2023-04-24T03:48:21;1.98;;;1.23;;
34876;SDS011;21086;44.780;17.194;2023-04-24T03:50:47;1.60;;;1.00;;
34876;SDS011;21086;44.780;17.194;2023-04-24T03:53:14;2.72;;;1.20;;
34876;SDS011;21086;44.780;17.194;2023-04-24T03:55:42;1.38;;;1.17;;
34876;SDS011;21086;44.780;17.194;2023-04-24T03:58:09;1.77;;;1.17;;
34876;SDS011;21086;44.780;17.194;2023-04-24T04:00:37;0.98;;;0.90;;
34876;SDS011;21086;44.780;17.194;2023-04-24T04:03:06;3.17;;;1.60;;
34876;SDS011;21086;44.780;17.194;2023-04-24T04:05:33;3.20;;;1.42;;
34876;SDS011;21086;44.780;17.194;2023-04-24T04:08:01;2.13;;;1.67;;
34876;SDS011;21086;44.780;17.194;2023-04-24T04:10:28;2.50;;;1.50;;
34876;SDS011;21086;44.780;17.194;2023-04-24T04:12:55;2.35;;;1.50;;
34876;SDS011;21086;44.780;17.194;2023-04-24T04:15:22;1.48;;;1.33;;
34876;SDS011;21086;44.780;17.194;2023-04-24T04:17:49;2.30;;;1.90;;
34876;SDS011;21086;44.780;17.194;2023-04-24T04:20:16;2.17;;;1.42;;
34876;SDS011;21086;44.780;17.194;2023-04-24T04:22:43;2.63;;;1.60;;
34876;SDS011;21086;44.780;17.194;2023-04-24T04:25:10;2.95;;;1.52;;
34876;SDS011;21086;44.780;17.194;2023-04-24T04:27:37;2.08;;;1.70;;
34876;SDS011;21086;44.780;17.194;2023-04-24T04:30:05;4.18;;;1.27;;
34876;SDS011;21086;44.780;17.194;2023-04-24T04:32:32;4.82;;;1.70;;
34876;SDS011;21086;44.780;17.194;2023-04-24T04:35:01;3.92;;;1.90;;
34876;SDS011;21086;44.780;17.194;2023-04-24T04:37:34;4.35;;;1.45;;
34876;SDS011;21086;44.780;17.194;2023-04-24T04:40:02;2.40;;;1.65;;
34876;SDS011;21086;44.780;17.194;2023-04-24T04:42:47;2.67;;;1.20;;
34876;SDS011;21086;44.780;17.194;2023-04-24T04:45:14;1.75;;;1.50;;
34876;SDS011;21086;44.780;17.194;2023-04-24T04:47:43;2.53;;;1.70;;
34876;SDS011;21086;44.780;17.194;2023-04-24T04:50:11;2.22;;;1.63;;
34876;SDS011;21086;44.780;17.194;2023-04-24T04:52:38;4.82;;;1.48;;
34876;SDS011;21086;44.780;17.194;2023-04-24T04:55:05;3.13;;;2.00;;
34876;SDS011;21086;44.780;17.194;2023-04-24T04:57:33;4.22;;;2.88;;
34876;SDS011;21086;44.780;17.194;2023-04-24T05:00:00;2.60;;;2.15;;
34876;SDS011;21086;44.780;17.194;2023-04-24T05:02:27;3.63;;;2.00;;
34876;SDS011;21086;44.780;17.194;2023-04-24T05:04:54;5.15;;;2.08;;
34876;SDS011;21086;44.780;17.194;2023-04-24T05:07:22;4.63;;;2.60;;
34876;SDS011;21086;44.780;17.194;2023-04-24T05:09:49;3.78;;;2.70;;
34876;SDS011;21086;44.780;17.194;2023-04-24T05:12:17;3.63;;;2.58;;
34876;SDS011;21086;44.780;17.194;2023-04-24T05:14:44;6.07;;;3.28;;
34876;SDS011;21086;44.780;17.194;2023-04-24T05:17:11;11.95;;;6.45;;
34876;SDS011;21086;44.780;17.194;2023-04-24T05:19:39;14.63;;;7.95;;
34876;SDS011;21086;44.780;17.194;2023-04-24T05:22:06;14.30;;;9.15;;
34876;SDS011;21086;44.780;17.194;2023-04-24T05:24:33;9.70;;;7.93;;
34876;SDS011;21086;44.780;17.194;2023-04-24T05:27:00;29.05;;;8.02;;
34876;SDS011;21086;44.780;17.194;2023-04-24T05:29:31;7.32;;;5.55;;
34876;SDS011;21086;44.780;17.194;2023-04-24T05:31:59;6.97;;;5.40;;
34876;SDS011;21086;44.780;17.194;2023-04-24T05:34:26;8.60;;;5.75;;
34876;SDS011;21086;44.780;17.194;2023-04-24T05:36:53;7.22;;;5.60;;
34876;SDS011;21086;44.780;17.194;2023-04-24T05:39:20;10.60;;;6.13;;
34876;SDS011;21086;44.780;17.194;2023-04-24T05:41:47;8.07;;;6.32;;
34876;SDS011;21086;44.780;17.194;2023-04-24T05:44:14;6.75;;;6.05;;
34876;SDS011;21086;44.780;17.194;2023-04-24T05:46:41;7.32;;;5.43;;
34876;SDS011;21086;44.780;17.194;2023-04-24T05:49:08;8.43;;;5.30;;
34876;SDS011;21086;44.780;17.194;2023-04-24T05:51:35;7.35;;;5.53;;
34876;SDS011;21086;44.780;17.194;2023-04-24T05:54:02;7.82;;;6.00;;
34876;SDS011;21086;44.780;17.194;2023-04-24T05:56:29;6.95;;;6.13;;
34876;SDS011;21086;44.780;17.194;2023-04-24T05:58:57;8.45;;;6.40;;
34876;SDS011;21086;44.780;17.194;2023-04-24T06:01:24;6.55;;;5.72;;
34876;SDS011;21086;44.780;17.194;2023-04-24T06:03:52;8.85;;;6.43;;
34876;SDS011;21086;44.780;17.194;2023-04-24T06:09:02;5.80;;;4.88;;
34876;SDS011;21086;44.780;17.194;2023-04-24T06:11:29;5.68;;;4.70;;
34876;SDS011;21086;44.780;17.194;2023-04-24T06:13:56;5.95;;;4.95;;
34876;SDS011;21086;44.780;17.194;2023-04-24T06:21:50;8.00;;;5.75;;
34876;SDS011;21086;44.780;17.194;2023-04-24T06:24:17;6.55;;;5.30;;
34876;SDS011;21086;44.780;17.194;2023-04-24T06:26:45;8.68;;;5.95;;
34876;SDS011;21086;44.780;17.194;2023-04-24T06:29:12;7.28;;;5.88;;
34876;SDS011;21086;44.780;17.194;2023-04-24T06:31:39;7.57;;;5.22;;
34876;SDS011;21086;44.780;17.194;2023-04-24T06:34:07;7.10;;;5.15;;
34876;SDS011;21086;44.780;17.194;2023-04-24T06:36:34;8.63;;;5.22;;
34876;SDS011;21086;44.780;17.194;2023-04-24T06:39:01;7.95;;;5.07;;
34876;SDS011;21086;44.780;17.194;2023-04-24T06:41:28;5.28;;;4.40;;
34876;SDS011;21086;44.780;17.194;2023-04-24T06:43:56;6.53;;;4.82;;
34876;SDS011;21086;44.780;17.194;2023-04-24T06:46:23;6.65;;;5.78;;
34876;SDS011;21086;44.780;17.194;2023-04-24T06:48:52;5.97;;;5.22;;
34876;SDS011;21086;44.780;17.194;2023-04-24T06:51:23;6.28;;;5.15;;
34876;SDS011;21086;44.780;17.194;2023-04-24T06:53:51;6.72;;;5.80;;
34876;SDS011;21086;44.780;17.194;2023-04-24T06:56:19;8.32;;;5.05;;
34876;SDS011;21086;44.780;17.194;2023-04-24T06:58:46;7.25;;;5.85;;
34876;SDS011;21086;44.780;17.194;2023-04-24T07:01:13;6.60;;;5.47;;
34876;SDS011;21086;44.780;17.194;2023-04-24T07:03:41;8.07;;;6.07;;
34876;SDS011;21086;44.780;17.194;2023-04-24T07:06:08;8.45;;;5.97;;
34876;SDS011;21086;44.780;17.194;2023-04-24T07:08:37;10.70;;;8.95;;
34876;SDS011;21086;44.780;17.194;2023-04-24T07:11:04;7.53;;;6.13;;
34876;SDS011;21086;44.780;17.194;2023-04-24T07:13:32;7.63;;;6.28;;
34876;SDS011;21086;44.780;17.194;2023-04-24T07:15:59;8.60;;;7.10;;
34876;SDS011;21086;44.780;17.194;2023-04-24T07:18:26;8.88;;;6.60;;
34876;SDS011;21086;44.780;17.194;2023-04-24T07:20:53;11.35;;;7.15;;
34876;SDS011;21086;44.780;17.194;2023-04-24T07:23:20;11.63;;;8.48;;
34876;SDS011;21086;44.780;17.194;2023-04-24T07:25:47;13.65;;;9.48;;
34876;SDS011;21086;44.780;17.194;2023-04-24T07:28:15;9.60;;;8.65;;
34876;SDS011;21086;44.780;17.194;2023-04-24T07:30:44;8.07;;;7.28;;
34876;SDS011;21086;44.780;17.194;2023-04-24T07:33:11;9.32;;;7.85;;
34876;SDS011;21086;44.780;17.194;2023-04-24T07:35:39;12.27;;;7.82;;
34876;SDS011;21086;44.780;17.194;2023-04-24T07:38:07;7.95;;;6.20;;
34876;SDS011;21086;44.780;17.194;2023-04-24T07:40:34;9.10;;;6.75;;
34876;SDS011;21086;44.780;17.194;2023-04-24T07:43:01;7.82;;;6.07;;
34876;SDS011;21086;44.780;17.194;2023-04-24T07:45:28;7.30;;;6.05;;
34876;SDS011;21086;44.780;17.194;2023-04-24T07:47:55;7.80;;;6.88;;
34876;SDS011;21086;44.780;17.194;2023-04-24T07:50:22;8.25;;;6.85;;
34876;SDS011;21086;44.780;17.194;2023-04-24T07:52:49;7.55;;;6.50;;
34876;SDS011;21086;44.780;17.194;2023-04-24T07:55:16;8.55;;;6.70;;
34876;SDS011;21086;44.780;17.194;2023-04-24T07:57:46;8.43;;;6.93;;
34876;SDS011;21086;44.780;17.194;2023-04-24T08:00:13;9.38;;;7.68;;
34876;SDS011;21086;44.780;17.194;2023-04-24T08:02:41;8.52;;;6.55;;
34876;SDS011;21086;44.780;17.194;2023-04-24T08:05:08;8.73;;;7.82;;
34876;SDS011;21086;44.780;17.194;2023-04-24T08:07:36;10.05;;;8.90;;
34876;SDS011;21086;44.780;17.194;2023-04-24T08:10:04;11.00;;;9.10;;
34876;SDS011;21086;44.780;17.194;2023-04-24T08:12:31;11.88;;;9.13;;
34876;SDS011;21086;44.780;17.194;2023-04-24T08:14:59;10.15;;;8.27;;
34876;SDS011;21086;44.780;17.194;2023-04-24T08:17:26;9.38;;;8.32;;
34876;SDS011;21086;44.780;17.194;2023-04-24T08:22:40;9.73;;;8.13;;
34876;SDS011;21086;44.780;17.194;2023-04-24T08:25:07;9.95;;;8.48;;
34876;SDS011;21086;44.780;17.194;2023-04-24T08:30:11;9.68;;;7.00;;
34876;SDS011;21086;44.780;17.194;2023-04-24T08:32:38;8.85;;;7.18;;
34876;SDS011;21086;44.780;17.194;2023-04-24T08:35:05;6.78;;;6.15;;
34876;SDS011;21086;44.780;17.194;2023-04-24T08:37:35;9.32;;;7.25;;
34876;SDS011;21086;44.780;17.194;2023-04-24T08:40:06;8.00;;;7.20;;
34876;SDS011;21086;44.780;17.194;2023-04-24T08:42:39;8.60;;;6.70;;
34876;SDS011;21086;44.780;17.194;2023-04-24T08:45:08;8.07;;;7.30;;
34876;SDS011;21086;44.780;17.194;2023-04-24T08:47:38;9.52;;;7.60;;
34876;SDS011;21086;44.780;17.194;2023-04-24T08:50:07;7.75;;;7.03;;
34876;SDS011;21086;44.780;17.194;2023-04-24T08:52:35;9.93;;;7.95;;
34876;SDS011;21086;44.780;17.194;2023-04-24T09:00:34;11.05;;;8.40;;
34876;SDS011;21086;44.780;17.194;2023-04-24T09:03:01;9.75;;;7.93;;
34876;SDS011;21086;44.780;17.194;2023-04-24T09:05:31;8.25;;;6.28;;
34876;SDS011;21086;44.780;17.194;2023-04-24T09:07:59;7.78;;;6.53;;
34876;SDS011;21086;44.780;17.194;2023-04-24T09:10:31;9.30;;;8.32;;
34876;SDS011;21086;44.780;17.194;2023-04-24T09:13:01;9.43;;;8.10;;
34876;SDS011;21086;44.780;17.194;2023-04-24T09:15:28;9.15;;;7.43;;
34876;SDS011;21086;44.780;17.194;2023-04-24T09:17:55;9.32;;;7.05;;
34876;SDS011;21086;44.780;17.194;2023-04-24T09:20:23;9.68;;;7.35;;
34876;SDS011;21086;44.780;17.194;2023-04-24T09:22:53;9.13;;;7.47;;
34876;SDS011;21086;44.780;17.194;2023-04-24T09:25:22;8.77;;;7.65;;
34876;SDS011;21086;44.780;17.194;2023-04-24T09:27:50;9.65;;;7.70;;
34876;SDS011;21086;44.780;17.194;2023-04-24T09:30:21;8.52;;;6.95;;
34876;SDS011;21086;44.780;17.194;2023-04-24T09:32:49;6.95;;;6.25;;
34876;SDS011;21086;44.780;17.194;2023-04-24T09:35:16;6.72;;;6.03;;
34876;SDS011;21086;44.780;17.194;2023-04-24T09:37:45;6.70;;;5.70;;
34876;SDS011;21086;44.780;17.194;2023-04-24T09:42:44;5.95;;;4.90;;
34876;SDS011;21086;44.780;17.194;2023-04-24T09:45:12;5.78;;;4.80;;
34876;SDS011;21086;44.780;17.194;2023-04-24T09:47:41;5.28;;;4.50;;
34876;SDS011;21086;44.780;17.194;2023-04-24T09:50:09;5.95;;;4.05;;
34876;SDS011;21086;44.780;17.194;2023-04-24T09:52:45;6.60;;;4.95;;
34876;SDS011;21086;44.780;17.194;2023-04-24T09:55:42;6.32;;;4.22;;
34876;SDS011;21086;44.780;17.194;2023-04-24T09:58:12;6.70;;;3.83;;
34876;SDS011;21086;44.780;17.194;2023-04-24T10:00:39;4.13;;;3.72;;
34876;SDS011;21086;44.780;17.194;2023-04-24T10:03:06;5.07;;;4.20;;
34876;SDS011;21086;44.780;17.194;2023-04-24T10:05:35;8.07;;;4.50;;
34876;SDS011;21086;44.780;17.194;2023-04-24T10:08:04;6.20;;;4.72;;
34876;SDS011;21086;44.780;17.194;2023-04-24T10:10:35;8.95;;;5.35;;
34876;SDS011;21086;44.780;17.194;2023-04-24T10:13:05;13.77;;;4.85;;
34876;SDS011;21086;44.780;17.194;2023-04-24T10:15:39;5.82;;;4.00;;
34876;SDS011;21086;44.780;17.194;2023-04-24T10:18:08;4.28;;;3.83;;
34876;SDS011;21086;44.780;17.194;2023-04-24T10:20:38;6.45;;;4.28;;
34876;SDS011;21086;44.780;17.194;2023-04-24T10:23:06;5.68;;;3.75;;
34876;SDS011;21086;44.780;17.194;2023-04-24T10:25:35;7.50;;;4.50;;
34876;SDS011;21086;44.780;17.194;2023-04-24T10:28:03;8.77;;;5.43;;
34876;SDS011;21086;44.780;17.194;2023-04-24T10:30:33;6.03;;;4.07;;
34876;SDS011;21086;44.780;17.194;2023-04-24T10:33:04;6.90;;;3.88;;
34876;SDS011;21086;44.780;17.194;2023-04-24T10:35:36;7.40;;;4.78;;
34876;SDS011;21086;44.780;17.194;2023-04-24T10:38:11;6.80;;;4.30;;
34876;SDS011;21086;44.780;17.194;2023-04-24T10:40:40;3.90;;;3.53;;
34876;SDS011;21086;44.780;17.194;2023-04-24T10:43:08;8.23;;;3.50;;
34876;SDS011;21086;44.780;17.194;2023-04-24T10:45:38;7.40;;;3.50;;
34876;SDS011;21086;44.780;17.194;2023-04-24T10:48:09;4.30;;;3.40;;
34876;SDS011;21086;44.780;17.194;2023-04-24T10:50:44;4.00;;;3.28;;
34876;SDS011;21086;44.780;17.194;2023-04-24T10:53:17;4.30;;;3.58;;
34876;SDS011;21086;44.780;17.194;2023-04-24T10:55:50;6.88;;;3.70;;
34876;SDS011;21086;44.780;17.194;2023-04-24T10:58:22;4.15;;;3.40;;
34876;SDS011;21086;44.780;17.194;2023-04-24T11:00:56;6.45;;;3.40;;
34876;SDS011;21086;44.780;17.194;2023-04-24T11:03:29;6.35;;;3.95;;
34876;SDS011;21086;44.780;17.194;2023-04-24T11:06:05;5.82;;;3.72;;
34876;SDS011;21086;44.780;17.194;2023-04-24T11:08:44;4.93;;;3.38;;
34876;SDS011;21086;44.780;17.194;2023-04-24T11:11:12;5.75;;;3.30;;
34876;SDS011;21086;44.780;17.194;2023-04-24T11:16:26;4.78;;;3.30;;
34876;SDS011;21086;44.780;17.194;2023-04-24T11:21:39;5.78;;;3.53;;
34876;SDS011;21086;44.780;17.194;2023-04-24T11:24:25;5.97;;;4.07;;
34876;SDS011;21086;44.780;17.194;2023-04-24T11:27:13;7.43;;;4.68;;
34876;SDS011;21086;44.780;17.194;2023-04-24T11:32:25;9.73;;;5.22;;
34876;SDS011;21086;44.780;17.194;2023-04-24T11:37:33;8.18;;;5.85;;
34876;SDS011;21086;44.780;17.194;2023-04-24T11:40:03;8.00;;;5.85;;
34876;SDS011;21086;44.780;17.194;2023-04-24T11:42:35;7.47;;;5.40;;
34876;SDS011;21086;44.780;17.194;2023-04-24T11:45:10;7.63;;;5.90;;
34876;SDS011;21086;44.780;17.194;2023-04-24T11:47:39;7.45;;;4.95;;
34876;SDS011;21086;44.780;17.194;2023-04-24T11:50:07;11.90;;;6.25;;
34876;SDS011;21086;44.780;17.194;2023-04-24T11:58:06;6.45;;;5.53;;
34876;SDS011;21086;44.780;17.194;2023-04-24T12:00:34;7.20;;;5.45;;
34876;SDS011;21086;44.780;17.194;2023-04-24T12:05:36;8.02;;;5.82;;
34876;SDS011;21086;44.780;17.194;2023-04-24T12:08:05;6.78;;;5.95;;
34876;SDS011;21086;44.780;17.194;2023-04-24T12:10:33;9.98;;;5.30;;
34876;SDS011;21086;44.780;17.194;2023-04-24T12:13:01;7.43;;;6.07;;
34876;SDS011;21086;44.780;17.194;2023-04-24T12:15:28;6.47;;;5.78;;
34876;SDS011;21086;44.780;17.194;2023-04-24T12:17:56;5.82;;;5.30;;
34876;SDS011;21086;44.780;17.194;2023-04-24T12:20:26;8.38;;;6.00;;
34876;SDS011;21086;44.780;17.194;2023-04-24T12:22:56;7.65;;;5.70;;
34876;SDS011;21086;44.780;17.194;2023-04-24T12:25:25;10.55;;;7.10;;
34876;SDS011;21086;44.780;17.194;2023-04-24T12:30:34;7.15;;;5.13;;
34876;SDS011;21086;44.780;17.194;2023-04-24T12:33:06;6.93;;;4.95;;
34876;SDS011;21086;44.780;17.194;2023-04-24T12:35:33;5.20;;;4.70;;
34876;SDS011;21086;44.780;17.194;2023-04-24T12:38:05;5.10;;;3.60;;
34876;SDS011;21086;44.780;17.194;2023-04-24T12:40:34;5.05;;;3.70;;
34876;SDS011;21086;44.780;17.194;2023-04-24T12:43:02;6.68;;;4.35;;
34876;SDS011;21086;44.780;17.194;2023-04-24T12:45:40;4.13;;;3.72;;
34876;SDS011;21086;44.780;17.194;2023-04-24T12:48:08;4.43;;;3.83;;
34876;SDS011;21086;44.780;17.194;2023-04-24T12:50:35;4.07;;;3.30;;
34876;SDS011;21086;44.780;17.194;2023-04-24T12:53:01;4.35;;;3.50;;
34876;SDS011;21086;44.780;17.194;2023-04-24T12:55:29;4.50;;;3.85;;
34876;SDS011;21086;44.780;17.194;2023-04-24T12:57:56;3.75;;;3.33;;
34876;SDS011;21086;44.780;17.194;2023-04-24T13:00:23;4.43;;;3.97;;
34876;SDS011;21086;44.780;17.194;2023-04-24T13:02:50;6.60;;;3.80;;
34876;SDS011;21086;44.780;17.194;2023-04-24T13:05:20;5.68;;;3.72;;
34876;SDS011;21086;44.780;17.194;2023-04-24T13:07:50;4.93;;;3.47;;
34876;SDS011;21086;44.780;17.194;2023-04-24T13:10:17;5.78;;;3.80;;
34876;SDS011;21086;44.780;17.194;2023-04-24T13:12:45;4.25;;;3.55;;
34876;SDS011;21086;44.780;17.194;2023-04-24T13:15:12;4.65;;;3.60;;
34876;SDS011;21086;44.780;17.194;2023-04-24T13:17:39;6.13;;;4.30;;
34876;SDS011;21086;44.780;17.194;2023-04-24T13:20:07;6.97;;;3.55;;
34876;SDS011;21086;44.780;17.194;2023-04-24T13:22:34;6.28;;;3.78;;
34876;SDS011;21086;44.780;17.194;2023-04-24T13:25:02;5.75;;;3.80;;
34876;SDS011;21086;44.780;17.194;2023-04-24T13:27:29;6.32;;;3.92;;
34876;SDS011;21086;44.780;17.194;2023-04-24T13:29:57;4.32;;;3.47;;
34876;SDS011;21086;44.780;17.194;2023-04-24T13:32:24;5.10;;;3.72;;
34876;SDS011;21086;44.780;17.194;2023-04-24T13:34:51;18.27;;;9.73;;
34876;SDS011;21086;44.780;17.194;2023-04-24T13:37:18;8.23;;;5.28;;
34876;SDS011;21086;44.780;17.194;2023-04-24T13:39:45;4.80;;;3.50;;
34876;SDS011;21086;44.780;17.194;2023-04-24T13:42:12;8.38;;;4.18;;
34876;SDS011;21086;44.780;17.194;2023-04-24T13:44:40;7.50;;;5.85;;
34876;SDS011;21086;44.780;17.194;2023-04-24T13:47:06;43.55;;;32.50;;
34876;SDS011;21086;44.780;17.194;2023-04-24T13:49:33;6.65;;;5.40;;
34876;SDS011;21086;44.780;17.194;2023-04-24T13:52:01;5.90;;;4.97;;
34876;SDS011;21086;44.780;17.194;2023-04-24T13:54:29;8.38;;;6.55;;
34876;SDS011;21086;44.780;17.194;2023-04-24T13:56:57;8.35;;;7.55;;
34876;SDS011;21086;44.780;17.194;2023-04-24T13:59:25;9.25;;;8.43;;
34876;SDS011;21086;44.780;17.194;2023-04-24T14:01:52;8.85;;;7.68;;
34876;SDS011;21086;44.780;17.194;2023-04-24T14:04:19;6.10;;;5.50;;
34876;SDS011;21086;44.780;17.194;2023-04-24T14:06:47;6.10;;;5.50;;
34876;SDS011;21086;44.780;17.194;2023-04-24T14:09:14;7.07;;;4.82;;
34876;SDS011;21086;44.780;17.194;2023-04-24T14:11:41;14.05;;;12.65;;
34876;SDS011;21086;44.780;17.194;2023-04-24T14:14:08;10.75;;;9.65;;
34876;SDS011;21086;44.780;17.194;2023-04-24T14:16:35;10.23;;;9.20;;
34876;SDS011;21086;44.780;17.194;2023-04-24T14:19:02;19.27;;;13.65;;
34876;SDS011;21086;44.780;17.194;2023-04-24T14:21:31;12.70;;;9.45;;
34876;SDS011;21086;44.780;17.194;2023-04-24T14:23:58;11.10;;;8.32;;
34876;SDS011;21086;44.780;17.194;2023-04-24T14:26:25;9.93;;;7.18;;
34876;SDS011;21086;44.780;17.194;2023-04-24T14:28:53;8.95;;;7.05;;
34876;SDS011;21086;44.780;17.194;2023-04-24T14:31:39;8.27;;;6.20;;
34876;SDS011;21086;44.780;17.194;2023-04-24T14:34:06;8.23;;;6.00;;
34876;SDS011;21086;44.780;17.194;2023-04-24T14:36:33;9.48;;;5.80;;
34876;SDS011;21086;44.780;17.194;2023-04-24T14:39:01;10.27;;;8.27;;
34876;SDS011;21086;44.780;17.194;2023-04-24T14:41:32;14.07;;;12.07;;
34876;SDS011;21086;44.780;17.194;2023-04-24T14:44:02;19.40;;;14.27;;
34876;SDS011;21086;44.780;17.194;2023-04-24T14:54:46;8.05;;;6.20;;
34876;SDS011;21086;44.780;17.194;2023-04-24T14:57:13;10.32;;;7.63;;
34876;SDS011;21086;44.780;17.194;2023-04-24T14:59:41;6.75;;;5.78;;
34876;SDS011;21086;44.780;17.194;2023-04-24T15:02:08;8.02;;;7.05;;
34876;SDS011;21086;44.780;17.194;2023-04-24T15:04:42;8.07;;;6.25;;
34876;SDS011;21086;44.780;17.194;2023-04-24T15:07:19;5.10;;;4.60;;
34876;SDS011;21086;44.780;17.194;2023-04-24T15:09:46;5.72;;;4.95;;
34876;SDS011;21086;44.780;17.194;2023-04-24T15:12:14;5.90;;;4.45;;
34876;SDS011;21086;44.780;17.194;2023-04-24T15:17:16;2.35;;;1.50;;
34876;SDS011;21086;44.780;17.194;2023-04-24T15:19:44;2.58;;;1.50;;
34876;SDS011;21086;44.780;17.194;2023-04-24T15:22:11;1.70;;;1.20;;
34876;SDS011;21086;44.780;17.194;2023-04-24T15:24:38;1.40;;;0.60;;
34876;SDS011;21086;44.780;17.194;2023-04-24T15:29:41;0.63;;;0.40;;
34876;SDS011;21086;44.780;17.194;2023-04-24T15:34:44;0.90;;;0.57;;
34876;SDS011;21086;44.780;17.194;2023-04-24T15:37:11;0.50;;;0.40;;
34876;SDS011;21086;44.780;17.194;2023-04-24T15:39:38;0.55;;;0.50;;